sensor_id;sensor_type;location;lat;lon;timestamp;pressure;altitude;pressure_sealevel;temperature;humidity
67738;BME280;54534;43.612;1.572;2022-07-30T00:02:06;99522.75;;;24.91;48.79
67738;BME280;54534;43.612;1.572;2022-07-30T00:04:31;99521.91;;;24.90;48.59
67738;BME280;54534;43.612;1.572;2022-07-30T00:06:57;99518.25;;;24.91;48.65
67738;BME280;54534;43.612;1.572;2022-07-30T00:09:23;99521.91;;;24.90;48.38
67738;BME280;54534;43.612;1.572;2022-07-30T00:11:48;99520.94;;;24.91;48.61
67738;BME280;54534;43.612;1.572;2022-07-30T00:14:14;99525.47;;;24.91;48.34
67738;BME280;54534;43.612;1.572;2022-07-30T00:16:39;99518.25;;;24.91;48.42
67738;BME280;54534;43.612;1.572;2022-07-30T00:19:05;99518.25;;;24.91;48.61
67738;BME280;54534;43.612;1.572;2022-07-30T00:21:30;99521.91;;;24.90;48.63
67738;BME280;54534;43.612;1.572;2022-07-30T00:23:56;99522.75;;;24.91;48.55
67738;BME280;54534;43.612;1.572;2022-07-30T00:26:21;99523.63;;;24.91;48.53
67738;BME280;54534;43.612;1.572;2022-07-30T00:28:47;99524.59;;;24.90;48.61
67738;BME280;54534;43.612;1.572;2022-07-30T00:31:12;99521.09;;;24.90;48.67
67738;BME280;54534;43.612;1.572;2022-07-30T00:33:37;99514.69;;;24.91;48.42
67738;BME280;54534;43.612;1.572;2022-07-30T00:36:03;99522.75;;;24.91;48.60
67738;BME280;54534;43.612;1.572;2022-07-30T00:38:28;99518.25;;;24.91;48.41
67738;BME280;54534;43.612;1.572;2022-07-30T00:40:54;99523.63;;;24.91;48.60
67738;BME280;54534;43.612;1.572;2022-07-30T00:43:19;99515.56;;;24.91;48.60
67738;BME280;54534;43.612;1.572;2022-07-30T00:45:45;99520.94;;;24.91;48.39
67738;BME280;54534;43.612;1.572;2022-07-30T00:48:12;99516.53;;;24.90;48.74
67738;BME280;54534;43.612;1.572;2022-07-30T00:50:39;99518.41;;;24.90;48.80
67738;BME280;54534;43.612;1.572;2022-07-30T00:53:05;99513.84;;;24.90;48.74
67738;BME280;54534;43.612;1.572;2022-07-30T00:55:32;99513.84;;;24.90;48.65
67738;BME280;54534;43.612;1.572;2022-07-30T00:57:58;99519.22;;;24.90;48.56
67738;BME280;54534;43.612;1.572;2022-07-30T01:00:24;99512.19;;;24.89;48.77
67738;BME280;54534;43.612;1.572;2022-07-30T01:02:50;99507.66;;;24.90;48.62
67738;BME280;54534;43.612;1.572;2022-07-30T01:05:16;99509.50;;;24.89;48.69
67738;BME280;54534;43.612;1.572;2022-07-30T01:07:42;99512.19;;;24.89;48.56
67738;BME280;54534;43.612;1.572;2022-07-30T01:10:09;99504.78;;;24.91;48.80
67738;BME280;54534;43.612;1.572;2022-07-30T01:12:36;99512.00;;;24.91;48.92
67738;BME280;54534;43.612;1.572;2022-07-30T01:15:04;99506.63;;;24.91;48.60
67738;BME280;54534;43.612;1.572;2022-07-30T01:17:30;99500.41;;;24.90;48.49
67738;BME280;54534;43.612;1.572;2022-07-30T01:20:00;99504.97;;;24.90;48.48
67738;BME280;54534;43.612;1.572;2022-07-30T01:28:03;99506.81;;;24.89;48.73
67738;BME280;54534;43.612;1.572;2022-07-30T01:30:33;99511.31;;;24.88;48.62
67738;BME280;54534;43.612;1.572;2022-07-30T01:33:00;99504.25;;;24.87;48.41
67738;BME280;54534;43.612;1.572;2022-07-30T01:35:28;99511.31;;;24.88;48.61
67738;BME280;54534;43.612;1.572;2022-07-30T01:37:55;99514.03;;;24.88;48.71
67738;BME280;54534;43.612;1.572;2022-07-30T01:40:22;99517.56;;;24.89;48.50
67738;BME280;54534;43.612;1.572;2022-07-30T01:42:51;99519.41;;;24.88;48.47
67738;BME280;54534;43.612;1.572;2022-07-30T01:45:26;99513.84;;;24.90;48.49
67738;BME280;54534;43.612;1.572;2022-07-30T01:47:53;99514.88;;;24.89;48.49
67738;BME280;54534;43.612;1.572;2022-07-30T01:50:20;99513.16;;;24.88;48.55
67738;BME280;54534;43.612;1.572;2022-07-30T01:52:47;99514.88;;;24.89;48.42
67738;BME280;54534;43.612;1.572;2022-07-30T01:55:16;99507.78;;;24.88;48.85
67738;BME280;54534;43.612;1.572;2022-07-30T01:57:44;99509.50;;;24.89;48.48
67738;BME280;54534;43.612;1.572;2022-07-30T02:00:12;99503.25;;;24.88;48.85
67738;BME280;54534;43.612;1.572;2022-07-30T02:02:37;99502.41;;;24.88;48.69
67738;BME280;54534;43.612;1.572;2022-07-30T02:05:08;99505.94;;;24.88;48.34
67738;BME280;54534;43.612;1.572;2022-07-30T02:08:11;99499.72;;;24.88;48.49
67738;BME280;54534;43.612;1.572;2022-07-30T02:11:06;99499.72;;;24.88;48.36
67738;BME280;54534;43.612;1.572;2022-07-30T02:13:36;99503.41;;;24.87;48.77
67738;BME280;54534;43.612;1.572;2022-07-30T02:16:12;99506.94;;;24.87;48.62
67738;BME280;54534;43.612;1.572;2022-07-30T02:21:08;99505.28;;;24.86;48.51
67738;BME280;54534;43.612;1.572;2022-07-30T02:23:37;99499.03;;;24.86;48.92
67738;BME280;54534;43.612;1.572;2022-07-30T02:26:06;99505.28;;;24.86;48.69
67738;BME280;54534;43.612;1.572;2022-07-30T02:28:36;99500.72;;;24.87;48.81
67738;BME280;54534;43.612;1.572;2022-07-30T02:31:03;99506.09;;;24.87;48.47
67738;BME280;54534;43.612;1.572;2022-07-30T02:33:33;99499.91;;;24.86;48.52
67738;BME280;54534;43.612;1.572;2022-07-30T02:36:02;99504.25;;;24.87;48.85
67738;BME280;54534;43.612;1.572;2022-07-30T02:38:28;99494.66;;;24.85;48.65
67738;BME280;54534;43.612;1.572;2022-07-30T02:40:57;99500.72;;;24.87;48.54
67738;BME280;54534;43.612;1.572;2022-07-30T02:43:24;99499.91;;;24.86;48.93
67738;BME280;54534;43.612;1.572;2022-07-30T02:45:51;99505.41;;;24.85;48.69
67738;BME280;54534;43.612;1.572;2022-07-30T02:48:19;99497.22;;;24.86;48.77
67738;BME280;54534;43.612;1.572;2022-07-30T02:50:47;99501.72;;;24.86;48.49
67738;BME280;54534;43.612;1.572;2022-07-30T02:53:13;99495.50;;;24.85;48.57
67738;BME280;54534;43.612;1.572;2022-07-30T02:55:41;99500.88;;;24.85;48.58
67738;BME280;54534;43.612;1.572;2022-07-30T02:58:07;99503.56;;;24.85;48.59
67738;BME280;54534;43.612;1.572;2022-07-30T03:00:34;99501.72;;;24.86;48.80
67738;BME280;54534;43.612;1.572;2022-07-30T03:03:01;99502.72;;;24.85;48.70
67738;BME280;54534;43.612;1.572;2022-07-30T03:05:28;99502.72;;;24.85;48.76
67738;BME280;54534;43.612;1.572;2022-07-30T03:07:56;99504.44;;;24.86;48.82
67738;BME280;54534;43.612;1.572;2022-07-30T03:10:23;99501.72;;;24.86;48.72
67738;BME280;54534;43.612;1.572;2022-07-30T03:12:49;99502.72;;;24.85;48.60
67738;BME280;54534;43.612;1.572;2022-07-30T03:15:15;99497.34;;;24.85;48.59
67738;BME280;54534;43.612;1.572;2022-07-30T03:17:42;99500.03;;;24.85;48.70
67738;BME280;54534;43.612;1.572;2022-07-30T03:20:13;99498.19;;;24.85;48.72
67738;BME280;54534;43.612;1.572;2022-07-30T03:22:42;99503.56;;;24.85;48.63
67738;BME280;54534;43.612;1.572;2022-07-30T03:25:09;99500.88;;;24.85;48.44
67738;BME280;54534;43.612;1.572;2022-07-30T03:27:37;99499.19;;;24.84;48.47
67738;BME280;54534;43.612;1.572;2022-07-30T03:30:05;99500.22;;;24.83;48.46
67738;BME280;54534;43.612;1.572;2022-07-30T03:32:31;99507.25;;;24.84;48.51
67738;BME280;54534;43.612;1.572;2022-07-30T03:34:58;99506.44;;;24.84;48.62
67738;BME280;54534;43.612;1.572;2022-07-30T03:37:25;99508.09;;;24.85;48.44
67738;BME280;54534;43.612;1.572;2022-07-30T03:39:51;99501.06;;;24.84;48.52
67738;BME280;54534;43.612;1.572;2022-07-30T03:42:18;99507.41;;;24.83;48.45
67738;BME280;54534;43.612;1.572;2022-07-30T03:44:45;99508.28;;;24.83;48.59
67738;BME280;54534;43.612;1.572;2022-07-30T03:47:12;99505.59;;;24.83;48.64
67738;BME280;54534;43.612;1.572;2022-07-30T03:49:38;99510.13;;;24.83;48.51
67738;BME280;54534;43.612;1.572;2022-07-30T03:52:04;99508.41;;;24.82;48.44
67738;BME280;54534;43.612;1.572;2022-07-30T03:54:31;99508.41;;;24.82;48.40
67738;BME280;54534;43.612;1.572;2022-07-30T03:56:59;99514.63;;;24.82;48.82
67738;BME280;54534;43.612;1.572;2022-07-30T03:59:25;99513.78;;;24.82;48.62
67738;BME280;54534;43.612;1.572;2022-07-30T04:01:51;99518.34;;;24.81;48.61
67738;BME280;54534;43.612;1.572;2022-07-30T04:04:16;99520.03;;;24.82;48.34
67738;BME280;54534;43.612;1.572;2022-07-30T04:06:42;99517.50;;;24.81;48.63
67738;BME280;54534;43.612;1.572;2022-07-30T04:09:09;99523.72;;;24.81;48.60
67738;BME280;54534;43.612;1.572;2022-07-30T04:11:35;99529.09;;;24.81;48.21
67738;BME280;54534;43.612;1.572;2022-07-30T04:14:00;99525.72;;;24.79;48.89
67738;BME280;54534;43.612;1.572;2022-07-30T04:17:20;99525.56;;;24.81;48.28
67738;BME280;54534;43.612;1.572;2022-07-30T04:19:42;99528.25;;;24.81;48.63
67738;BME280;54534;43.612;1.572;2022-07-30T04:22:11;99539.00;;;24.81;48.66
67738;BME280;54534;43.612;1.572;2022-07-30T04:24:38;99536.31;;;24.81;48.73
67738;BME280;54534;43.612;1.572;2022-07-30T04:27:04;99538.34;;;24.79;48.52
67738;BME280;54534;43.612;1.572;2022-07-30T04:29:30;99541.03;;;24.79;48.66
67738;BME280;54534;43.612;1.572;2022-07-30T04:31:55;99545.56;;;24.78;48.39
67738;BME280;54534;43.612;1.572;2022-07-30T04:34:21;99546.41;;;24.79;48.32
67738;BME280;54534;43.612;1.572;2022-07-30T04:36:46;99542.00;;;24.77;48.62
67738;BME280;54534;43.612;1.572;2022-07-30T04:39:12;99543.00;;;24.76;48.64
67738;BME280;54534;43.612;1.572;2022-07-30T04:41:38;99552.75;;;24.77;48.69
67738;BME280;54534;43.612;1.572;2022-07-30T04:44:04;99545.56;;;24.78;48.30
67738;BME280;54534;43.612;1.572;2022-07-30T04:46:29;99557.28;;;24.77;48.23
67738;BME280;54534;43.612;1.572;2022-07-30T04:48:55;99558.16;;;24.77;48.57
67738;BME280;54534;43.612;1.572;2022-07-30T04:51:34;99551.91;;;24.77;48.40
67738;BME280;54534;43.612;1.572;2022-07-30T04:54:01;99558.16;;;24.77;48.29
67738;BME280;54534;43.612;1.572;2022-07-30T04:56:29;99565.34;;;24.77;48.62
67738;BME280;54534;43.612;1.572;2022-07-30T04:58:55;99570.75;;;24.77;48.60
67738;BME280;54534;43.612;1.572;2022-07-30T05:01:23;99576.13;;;24.77;48.35
67738;BME280;54534;43.612;1.572;2022-07-30T05:03:51;99574.44;;;24.76;48.44
67738;BME280;54534;43.612;1.572;2022-07-30T05:06:18;99581.66;;;24.75;48.34
67738;BME280;54534;43.612;1.572;2022-07-30T05:08:45;99575.44;;;24.75;48.49
67738;BME280;54534;43.612;1.572;2022-07-30T05:11:12;99582.66;;;24.74;48.14
67738;BME280;54534;43.612;1.572;2022-07-30T05:13:46;99582.50;;;24.76;48.52
67738;BME280;54534;43.612;1.572;2022-07-30T05:16:15;99583.50;;;24.75;48.32
67738;BME280;54534;43.612;1.572;2022-07-30T05:18:41;99585.34;;;24.74;48.29
67738;BME280;54534;43.612;1.572;2022-07-30T05:21:07;99582.66;;;24.74;48.33
67738;BME280;54534;43.612;1.572;2022-07-30T05:23:33;99585.34;;;24.74;48.17
67738;BME280;54534;43.612;1.572;2022-07-30T05:25:59;99591.72;;;24.73;48.50
67738;BME280;54534;43.612;1.572;2022-07-30T05:28:24;99584.50;;;24.74;48.49
67738;BME280;54534;43.612;1.572;2022-07-30T05:30:53;99587.19;;;24.74;48.15
67738;BME280;54534;43.612;1.572;2022-07-30T05:33:20;99589.88;;;24.74;48.43
67738;BME280;54534;43.612;1.572;2022-07-30T05:35:46;99591.72;;;24.73;48.50
67738;BME280;54534;43.612;1.572;2022-07-30T05:38:12;99591.72;;;24.73;48.49
67738;BME280;54534;43.612;1.572;2022-07-30T05:40:38;99594.72;;;24.70;48.08
67738;BME280;54534;43.612;1.572;2022-07-30T05:43:03;99596.97;;;24.57;48.49
67738;BME280;54534;43.612;1.572;2022-07-30T05:45:29;99599.19;;;24.43;48.83
67738;BME280;54534;43.612;1.572;2022-07-30T05:47:54;99609.44;;;24.29;49.11
67738;BME280;54534;43.612;1.572;2022-07-30T05:50:20;99601.59;;;24.18;49.61
67738;BME280;54534;43.612;1.572;2022-07-30T05:52:45;99610.84;;;24.05;49.72
67738;BME280;54534;43.612;1.572;2022-07-30T05:55:11;99607.53;;;23.93;50.05
67738;BME280;54534;43.612;1.572;2022-07-30T05:57:36;99619.00;;;23.85;50.25
67738;BME280;54534;43.612;1.572;2022-07-30T06:00:05;99618.59;;;23.80;50.62
67738;BME280;54534;43.612;1.572;2022-07-30T06:02:32;99616.50;;;23.74;50.68
67738;BME280;54534;43.612;1.572;2022-07-30T06:04:57;99611.59;;;23.69;50.76
67738;BME280;54534;43.612;1.572;2022-07-30T06:07:23;99610.31;;;23.63;50.95
67738;BME280;54534;43.612;1.572;2022-07-30T06:09:48;99618.97;;;23.57;51.15
67738;BME280;54534;43.612;1.572;2022-07-30T06:12:13;99608.66;;;23.52;51.29
67738;BME280;54534;43.612;1.572;2022-07-30T06:14:39;99608.91;;;23.49;51.30
67738;BME280;54534;43.612;1.572;2022-07-30T06:17:04;99609.38;;;23.44;51.54
67738;BME280;54534;43.612;1.572;2022-07-30T06:19:30;99604.00;;;23.44;51.61
67738;BME280;54534;43.612;1.572;2022-07-30T06:21:55;99598.50;;;23.46;51.56
67738;BME280;54534;43.612;1.572;2022-07-30T06:24:21;99604.84;;;23.45;51.91
67738;BME280;54534;43.612;1.572;2022-07-30T06:26:46;99609.38;;;23.44;51.67
67738;BME280;54534;43.612;1.572;2022-07-30T06:29:11;99615.59;;;23.45;51.74
67738;BME280;54534;43.612;1.572;2022-07-30T06:31:37;99612.06;;;23.44;51.62
67738;BME280;54534;43.612;1.572;2022-07-30T06:34:04;99617.13;;;23.48;51.87
67738;BME280;54534;43.612;1.572;2022-07-30T06:36:29;99619.66;;;23.49;51.62
67738;BME280;54534;43.612;1.572;2022-07-30T06:38:55;99625.78;;;23.51;51.65
67738;BME280;54534;43.612;1.572;2022-07-30T06:41:20;99624.06;;;23.50;51.72
67738;BME280;54534;43.612;1.572;2022-07-30T06:43:46;99625.91;;;23.50;51.66
67738;BME280;54534;43.612;1.572;2022-07-30T06:46:11;99625.91;;;23.50;51.59
67738;BME280;54534;43.612;1.572;2022-07-30T06:48:36;99625.78;;;23.51;51.75
67738;BME280;54534;43.612;1.572;2022-07-30T06:51:02;99634.66;;;23.52;51.71
67738;BME280;54534;43.612;1.572;2022-07-30T06:53:27;99630.13;;;23.52;51.69
67738;BME280;54534;43.612;1.572;2022-07-30T06:55:53;99632.13;;;23.50;51.74
67738;BME280;54534;43.612;1.572;2022-07-30T06:58:18;99636.50;;;23.51;51.70
67738;BME280;54534;43.612;1.572;2022-07-30T07:00:43;99636.50;;;23.51;51.92
67738;BME280;54534;43.612;1.572;2022-07-30T07:03:10;99636.50;;;23.51;51.62
67738;BME280;54534;43.612;1.572;2022-07-30T07:05:35;99635.66;;;23.51;51.63
67738;BME280;54534;43.612;1.572;2022-07-30T07:08:01;99641.03;;;23.51;51.65
67738;BME280;54534;43.612;1.572;2022-07-30T07:10:26;99641.28;;;23.48;51.61
67738;BME280;54534;43.612;1.572;2022-07-30T07:12:52;99646.94;;;23.44;51.57
67738;BME280;54534;43.612;1.572;2022-07-30T07:15:18;99644.53;;;23.41;51.79
67738;BME280;54534;43.612;1.572;2022-07-30T07:17:43;99644.84;;;23.38;51.94
67738;BME280;54534;43.612;1.572;2022-07-30T07:20:09;99649.22;;;23.39;52.08
67738;BME280;54534;43.612;1.572;2022-07-30T07:22:34;99651.75;;;23.41;51.96
67738;BME280;54534;43.612;1.572;2022-07-30T07:25:00;99662.50;;;23.41;52.19
67738;BME280;54534;43.612;1.572;2022-07-30T07:27:25;99658.97;;;23.40;52.02
67738;BME280;54534;43.612;1.572;2022-07-30T07:29:51;99657.13;;;23.41;52.15
67738;BME280;54534;43.612;1.572;2022-07-30T07:32:17;99660.63;;;23.41;52.21
67738;BME280;54534;43.612;1.572;2022-07-30T07:34:42;99661.38;;;23.43;52.36
67738;BME280;54534;43.612;1.572;2022-07-30T07:37:07;99661.03;;;23.47;52.26
67738;BME280;54534;43.612;1.572;2022-07-30T07:39:33;99658.81;;;23.52;52.06
67738;BME280;54534;43.612;1.572;2022-07-30T07:41:58;99660.06;;;23.58;52.02
67738;BME280;54534;43.612;1.572;2022-07-30T07:44:24;99666.69;;;23.63;51.88
67738;BME280;54534;43.612;1.572;2022-07-30T07:46:49;99668.09;;;23.67;51.81
67738;BME280;54534;43.612;1.572;2022-07-30T07:49:15;99671.91;;;23.75;51.69
67738;BME280;54534;43.612;1.572;2022-07-30T07:51:40;99665.22;;;23.79;51.65
67738;BME280;54534;43.612;1.572;2022-07-30T07:54:05;99663.81;;;23.85;51.43
67738;BME280;54534;43.612;1.572;2022-07-30T07:56:31;99670.56;;;23.89;51.30
67738;BME280;54534;43.612;1.572;2022-07-30T07:58:57;99670.97;;;23.94;51.22
67738;BME280;54534;43.612;1.572;2022-07-30T08:01:22;99661.63;;;23.98;51.13
67738;BME280;54534;43.612;1.572;2022-07-30T08:03:47;99659.47;;;24.02;50.98
67738;BME280;54534;43.612;1.572;2022-07-30T08:06:13;99664.56;;;24.05;50.78
67738;BME280;54534;43.612;1.572;2022-07-30T08:08:38;99665.97;;;24.09;50.77
67738;BME280;54534;43.612;1.572;2022-07-30T08:11:04;99661.28;;;24.11;50.58
67738;BME280;54534;43.612;1.572;2022-07-30T08:13:31;99654.59;;;24.16;50.73
67738;BME280;54534;43.612;1.572;2022-07-30T08:15:57;99656.31;;;24.17;50.46
67738;BME280;54534;43.612;1.572;2022-07-30T08:18:23;99657.69;;;24.21;50.40
67738;BME280;54534;43.612;1.572;2022-07-30T08:20:48;99651.50;;;24.20;50.35
67738;BME280;54534;43.612;1.572;2022-07-30T08:23:14;99652.00;;;24.24;50.33
67738;BME280;54534;43.612;1.572;2022-07-30T08:25:40;99660.75;;;24.26;50.19
67738;BME280;54534;43.612;1.572;2022-07-30T08:28:05;99662.22;;;24.30;50.08
67738;BME280;54534;43.612;1.572;2022-07-30T08:30:31;99665.59;;;24.32;50.02
67738;BME280;54534;43.612;1.572;2022-07-30T08:32:57;99657.34;;;24.34;49.84
67738;BME280;54534;43.612;1.572;2022-07-30T08:35:22;99654.53;;;24.36;49.78
67738;BME280;54534;43.612;1.572;2022-07-30T08:37:47;99658.91;;;24.37;50.02
67738;BME280;54534;43.612;1.572;2022-07-30T08:40:13;99658.75;;;24.38;49.82
67738;BME280;54534;43.612;1.572;2022-07-30T08:42:39;99654.06;;;24.40;49.69
67738;BME280;54534;43.612;1.572;2022-07-30T08:45:05;99653.09;;;24.41;49.79
67738;BME280;54534;43.612;1.572;2022-07-30T08:47:32;99650.25;;;24.43;49.37
67738;BME280;54534;43.612;1.572;2022-07-30T08:49:58;99650.94;;;24.45;49.65
67738;BME280;54534;43.612;1.572;2022-07-30T08:52:32;99656.31;;;24.45;49.56
67738;BME280;54534;43.612;1.572;2022-07-30T08:54:58;99640.03;;;24.47;49.43
67738;BME280;54534;43.612;1.572;2022-07-30T08:57:27;99647.78;;;24.50;49.56
67738;BME280;54534;43.612;1.572;2022-07-30T08:59:55;99645.81;;;24.52;49.73
67738;BME280;54534;43.612;1.572;2022-07-30T09:02:21;99643.97;;;24.52;49.41
67738;BME280;54534;43.612;1.572;2022-07-30T09:04:46;99650.03;;;24.54;49.36
67738;BME280;54534;43.612;1.572;2022-07-30T09:07:12;99649.00;;;24.55;49.39
67738;BME280;54534;43.612;1.572;2022-07-30T09:09:37;99652.41;;;24.58;49.57
67738;BME280;54534;43.612;1.572;2022-07-30T09:12:18;99657.63;;;24.59;49.47
67738;BME280;54534;43.612;1.572;2022-07-30T09:15:08;99661.69;;;24.63;49.16
67738;BME280;54534;43.612;1.572;2022-07-30T09:17:48;99658.19;;;24.63;49.04
67738;BME280;54534;43.612;1.572;2022-07-30T09:20:14;99651.66;;;24.65;49.11
67738;BME280;54534;43.612;1.572;2022-07-30T09:22:41;99655.16;;;24.66;49.25
67738;BME280;54534;43.612;1.572;2022-07-30T09:25:07;99658.56;;;24.68;49.02
67738;BME280;54534;43.612;1.572;2022-07-30T09:27:48;99654.00;;;24.69;49.25
67738;BME280;54534;43.612;1.572;2022-07-30T09:30:15;99656.56;;;24.70;49.06
67738;BME280;54534;43.612;1.572;2022-07-30T09:32:52;99651.88;;;24.72;49.13
67738;BME280;54534;43.612;1.572;2022-07-30T09:35:19;99649.19;;;24.72;49.19
67738;BME280;54534;43.612;1.572;2022-07-30T09:37:45;99656.28;;;24.73;49.01
67738;BME280;54534;43.612;1.572;2022-07-30T09:40:15;99652.44;;;24.76;49.06
67738;BME280;54534;43.612;1.572;2022-07-30T09:42:42;99654.94;;;24.77;49.19
67738;BME280;54534;43.612;1.572;2022-07-30T09:45:10;99652.94;;;24.80;49.18
67738;BME280;54534;43.612;1.572;2022-07-30T09:47:38;99658.19;;;24.81;48.74
67738;BME280;54534;43.612;1.572;2022-07-30T09:50:08;99655.31;;;24.83;48.65
67738;BME280;54534;43.612;1.572;2022-07-30T09:52:34;99647.81;;;24.86;48.88
67738;BME280;54534;43.612;1.572;2022-07-30T09:55:00;99658.25;;;24.90;48.86
67738;BME280;54534;43.612;1.572;2022-07-30T09:57:25;99659.81;;;24.92;48.83
67738;BME280;54534;43.612;1.572;2022-07-30T09:59:51;99661.47;;;24.93;48.64
67738;BME280;54534;43.612;1.572;2022-07-30T10:02:17;99658.47;;;24.96;48.57
67738;BME280;54534;43.612;1.572;2022-07-30T10:04:42;99661.00;;;24.98;48.68
67738;BME280;54534;43.612;1.572;2022-07-30T10:07:19;99653.66;;;25.00;48.56
67738;BME280;54534;43.612;1.572;2022-07-30T10:09:46;99656.19;;;25.02;48.60
67738;BME280;54534;43.612;1.572;2022-07-30T10:12:13;99652.34;;;25.04;48.84
67738;BME280;54534;43.612;1.572;2022-07-30T10:14:45;99658.28;;;25.08;48.23
67738;BME280;54534;43.612;1.572;2022-07-30T10:17:11;99650.03;;;25.09;48.61
67738;BME280;54534;43.612;1.572;2022-07-30T10:19:37;99649.88;;;25.11;48.30
67738;BME280;54534;43.612;1.572;2022-07-30T10:22:03;99646.03;;;25.14;48.51
67738;BME280;54534;43.612;1.572;2022-07-30T10:24:30;99641.50;;;25.14;48.12
67738;BME280;54534;43.612;1.572;2022-07-30T10:26:56;99637.81;;;25.15;48.26
67738;BME280;54534;43.612;1.572;2022-07-30T10:29:21;99635.81;;;25.17;48.53
67738;BME280;54534;43.612;1.572;2022-07-30T10:31:48;99626.75;;;25.18;48.12
67738;BME280;54534;43.612;1.572;2022-07-30T10:34:16;99631.78;;;25.21;48.43
67738;BME280;54534;43.612;1.572;2022-07-30T10:36:44;99622.88;;;25.21;48.46
67738;BME280;54534;43.612;1.572;2022-07-30T10:39:16;99619.84;;;25.24;48.44
67738;BME280;54534;43.612;1.572;2022-07-30T10:42:00;99617.03;;;25.26;48.05
67738;BME280;54534;43.612;1.572;2022-07-30T10:47:32;99613.00;;;25.30;47.94
67738;BME280;54534;43.612;1.572;2022-07-30T10:50:13;99606.63;;;25.31;48.08
67738;BME280;54534;43.612;1.572;2022-07-30T10:55:15;99594.53;;;25.35;48.13
67738;BME280;54534;43.612;1.572;2022-07-30T10:57:56;99589.00;;;25.37;47.99
67738;BME280;54534;43.612;1.572;2022-07-30T11:00:22;99595.25;;;25.37;47.59
67738;BME280;54534;43.612;1.572;2022-07-30T11:03:14;99596.78;;;25.40;48.00
67738;BME280;54534;43.612;1.572;2022-07-30T11:05:40;99598.44;;;25.41;47.79
67738;BME280;54534;43.612;1.572;2022-07-30T11:08:38;99596.44;;;25.43;47.59
67738;BME280;54534;43.612;1.572;2022-07-30T11:11:41;99585.66;;;25.43;47.42
67738;BME280;54534;43.612;1.572;2022-07-30T11:13:58;99593.41;;;25.46;47.51
67738;BME280;54534;43.612;1.572;2022-07-30T11:19:24;99584.19;;;25.49;47.48
67738;BME280;54534;43.612;1.572;2022-07-30T11:22:25;99580.50;;;25.50;47.70
67738;BME280;54534;43.612;1.572;2022-07-30T11:24:51;99591.25;;;25.50;47.34
67738;BME280;54534;43.612;1.572;2022-07-30T11:27:43;99581.34;;;25.50;47.23
67738;BME280;54534;43.612;1.572;2022-07-30T11:35:30;99569.41;;;25.53;47.26
67738;BME280;54534;43.612;1.572;2022-07-30T11:43:30;99573.78;;;25.54;47.53
67738;BME280;54534;43.612;1.572;2022-07-30T11:46:08;99582.53;;;25.56;46.98
67738;BME280;54534;43.612;1.572;2022-07-30T11:48:35;99567.22;;;25.57;47.32
67738;BME280;54534;43.612;1.572;2022-07-30T11:51:01;99569.78;;;25.58;47.25
67738;BME280;54534;43.612;1.572;2022-07-30T11:53:27;99574.13;;;25.59;47.12
67738;BME280;54534;43.612;1.572;2022-07-30T11:55:57;99567.75;;;25.60;47.22
67738;BME280;54534;43.612;1.572;2022-07-30T12:00:51;99574.50;;;25.64;47.08
67738;BME280;54534;43.612;1.572;2022-07-30T12:03:18;99568.13;;;25.65;46.80
67738;BME280;54534;43.612;1.572;2022-07-30T12:05:45;99561.75;;;25.66;47.20
67738;BME280;54534;43.612;1.572;2022-07-30T12:08:12;99566.78;;;25.70;46.95
67738;BME280;54534;43.612;1.572;2022-07-30T12:10:38;99559.53;;;25.70;47.08
67738;BME280;54534;43.612;1.572;2022-07-30T12:13:15;99553.00;;;25.73;47.00
67738;BME280;54534;43.612;1.572;2022-07-30T12:15:43;99564.47;;;25.75;46.68
67738;BME280;54534;43.612;1.572;2022-07-30T12:18:09;99561.63;;;25.76;46.75
67738;BME280;54534;43.612;1.572;2022-07-30T12:20:39;99550.69;;;25.78;46.96
67738;BME280;54534;43.612;1.572;2022-07-30T12:23:12;99555.06;;;25.79;46.61
67738;BME280;54534;43.612;1.572;2022-07-30T12:25:42;99551.34;;;25.80;46.84
67738;BME280;54534;43.612;1.572;2022-07-30T12:28:09;99540.44;;;25.82;46.58
67738;BME280;54534;43.612;1.572;2022-07-30T12:30:38;99541.09;;;25.84;46.61
67738;BME280;54534;43.612;1.572;2022-07-30T12:33:05;99543.63;;;25.85;46.59
67738;BME280;54534;43.612;1.572;2022-07-30T12:35:44;99547.16;;;25.86;46.43
67738;BME280;54534;43.612;1.572;2022-07-30T12:38:10;99546.00;;;25.88;46.79
67738;BME280;54534;43.612;1.572;2022-07-30T12:40:58;99539.63;;;25.90;46.54
67738;BME280;54534;43.612;1.572;2022-07-30T12:46:14;99533.06;;;25.92;46.73
67738;BME280;54534;43.612;1.572;2022-07-30T12:48:59;99536.41;;;25.94;46.57
67738;BME280;54534;43.612;1.572;2022-07-30T12:51:29;99537.09;;;25.96;46.36
67738;BME280;54534;43.612;1.572;2022-07-30T12:53:57;99531.56;;;25.98;46.60
67738;BME280;54534;43.612;1.572;2022-07-30T12:56:25;99529.69;;;25.98;46.58
67738;BME280;54534;43.612;1.572;2022-07-30T12:58:51;99522.44;;;25.99;46.14
67738;BME280;54534;43.612;1.572;2022-07-30T13:01:17;99525.00;;;26.01;46.23
67738;BME280;54534;43.612;1.572;2022-07-30T13:03:43;99523.97;;;26.02;46.33
67738;BME280;54534;43.612;1.572;2022-07-30T13:06:18;99515.88;;;26.02;46.63
67738;BME280;54534;43.612;1.572;2022-07-30T13:11:18;99520.28;;;26.03;46.43
67738;BME280;54534;43.612;1.572;2022-07-30T13:13:44;99512.34;;;26.01;46.51
67738;BME280;54534;43.612;1.572;2022-07-30T13:16:10;99512.34;;;26.01;46.46
67738;BME280;54534;43.612;1.572;2022-07-30T13:18:35;99504.25;;;26.01;46.44
67738;BME280;54534;43.612;1.572;2022-07-30T13:21:03;99504.13;;;26.03;46.40
67738;BME280;54534;43.612;1.572;2022-07-30T13:23:29;99518.44;;;26.03;46.26
67738;BME280;54534;43.612;1.572;2022-07-30T13:25:55;99509.50;;;26.03;46.67
67738;BME280;54534;43.612;1.572;2022-07-30T13:28:21;99495.19;;;26.02;46.56
67738;BME280;54534;43.612;1.572;2022-07-30T13:30:47;99495.84;;;26.04;46.76
67738;BME280;54534;43.612;1.572;2022-07-30T13:33:13;99497.56;;;26.05;46.70
67738;BME280;54534;43.612;1.572;2022-07-30T13:35:39;99500.25;;;26.05;46.29
67738;BME280;54534;43.612;1.572;2022-07-30T13:38:04;99501.09;;;26.06;46.54
67738;BME280;54534;43.612;1.572;2022-07-30T13:40:31;99496.56;;;26.06;46.31